sensor_id;sensor_type;location;lat;lon;timestamp;temperature;humidity
10581;DHT22;5338;51.500;6.802;2022-09-12T00:01:09;14.90;99.90
10581;DHT22;5338;51.500;6.802;2022-09-12T00:03:37;13.00;99.90
10581;DHT22;5338;51.500;6.802;2022-09-12T00:06:08;15.20;99.90
10581;DHT22;5338;51.500;6.802;2022-09-12T00:11:10;15.20;99.90
10581;DHT22;5338;51.500;6.802;2022-09-12T00:13:38;15.10;99.90
10581;DHT22;5338;51.500;6.802;2022-09-12T00:16:12;14.90;99.90
10581;DHT22;5338;51.500;6.802;2022-09-12T00:18:39;14.80;99.90
10581;DHT22;5338;51.500;6.802;2022-09-12T00:21:06;14.80;99.90
10581;DHT22;5338;51.500;6.802;2022-09-12T00:26:04;14.90;99.90
10581;DHT22;5338;51.500;6.802;2022-09-12T00:28:32;14.80;99.90
10581;DHT22;5338;51.500;6.802;2022-09-12T00:31:03;14.80;99.90
10581;DHT22;5338;51.500;6.802;2022-09-12T00:33:32;14.90;99.90
10581;DHT22;5338;51.500;6.802;2022-09-12T00:36:02;14.80;99.90
10581;DHT22;5338;51.500;6.802;2022-09-12T00:38:29;14.90;99.90
10581;DHT22;5338;51.500;6.802;2022-09-12T00:40:56;14.70;99.90
10581;DHT22;5338;51.500;6.802;2022-09-12T00:43:34;14.80;99.90
10581;DHT22;5338;51.500;6.802;2022-09-12T00:46:05;14.80;99.90
10581;DHT22;5338;51.500;6.802;2022-09-12T00:48:37;14.80;99.90
10581;DHT22;5338;51.500;6.802;2022-09-12T00:51:05;14.90;99.90
10581;DHT22;5338;51.500;6.802;2022-09-12T00:53:32;14.60;99.90
10581;DHT22;5338;51.500;6.802;2022-09-12T00:58:29;14.70;99.90
10581;DHT22;5338;51.500;6.802;2022-09-12T01:00:57;14.70;99.90
10581;DHT22;5338;51.500;6.802;2022-09-12T01:03:25;14.70;99.90
10581;DHT22;5338;51.500;6.802;2022-09-12T01:06:00;14.70;99.90
10581;DHT22;5338;51.500;6.802;2022-09-12T01:10:56;14.60;99.90
10581;DHT22;5338;51.500;6.802;2022-09-12T01:13:23;14.70;99.90
10581;DHT22;5338;51.500;6.802;2022-09-12T01:18:25;14.60;99.90
10581;DHT22;5338;51.500;6.802;2022-09-12T01:21:05;14.60;99.90
10581;DHT22;5338;51.500;6.802;2022-09-12T01:26:50;14.60;99.90
10581;DHT22;5338;51.500;6.802;2022-09-12T01:32:41;14.50;99.90
10581;DHT22;5338;51.500;6.802;2022-09-12T01:35:18;14.30;99.90
10581;DHT22;5338;51.500;6.802;2022-09-12T01:37:53;14.50;99.90
10581;DHT22;5338;51.500;6.802;2022-09-12T01:40:29;14.70;99.90
10581;DHT22;5338;51.500;6.802;2022-09-12T01:43:03;14.50;99.90
10581;DHT22;5338;51.500;6.802;2022-09-12T01:45:37;14.70;99.90
10581;DHT22;5338;51.500;6.802;2022-09-12T01:48:10;14.50;99.90
10581;DHT22;5338;51.500;6.802;2022-09-12T01:50:46;14.20;99.90
10581;DHT22;5338;51.500;6.802;2022-09-12T01:53:19;14.40;99.90
10581;DHT22;5338;51.500;6.802;2022-09-12T01:55:50;14.60;99.90
10581;DHT22;5338;51.500;6.802;2022-09-12T01:58:21;14.50;99.90
10581;DHT22;5338;51.500;6.802;2022-09-12T02:00:53;14.30;99.90
10581;DHT22;5338;51.500;6.802;2022-09-12T02:03:26;14.60;99.90
10581;DHT22;5338;51.500;6.802;2022-09-12T02:06:00;14.20;99.90
10581;DHT22;5338;51.500;6.802;2022-09-12T02:08:32;14.20;99.90
10581;DHT22;5338;51.500;6.802;2022-09-12T02:11:04;14.10;99.90
10581;DHT22;5338;51.500;6.802;2022-09-12T02:13:35;14.00;99.90
10581;DHT22;5338;51.500;6.802;2022-09-12T02:16:06;14.20;99.90
10581;DHT22;5338;51.500;6.802;2022-09-12T02:18:38;14.20;99.90
10581;DHT22;5338;51.500;6.802;2022-09-12T02:21:06;14.20;99.90
10581;DHT22;5338;51.500;6.802;2022-09-12T02:23:37;14.20;99.90
10581;DHT22;5338;51.500;6.802;2022-09-12T02:26:09;14.00;99.90
10581;DHT22;5338;51.500;6.802;2022-09-12T02:28:40;14.30;99.90
10581;DHT22;5338;51.500;6.802;2022-09-12T02:31:13;14.00;99.90
10581;DHT22;5338;51.500;6.802;2022-09-12T02:33:48;14.10;99.90
10581;DHT22;5338;51.500;6.802;2022-09-12T02:36:26;14.10;99.90
10581;DHT22;5338;51.500;6.802;2022-09-12T02:43:50;14.10;99.90
10581;DHT22;5338;51.500;6.802;2022-09-12T02:46:21;14.00;99.90
10581;DHT22;5338;51.500;6.802;2022-09-12T02:48:52;14.00;99.90
10581;DHT22;5338;51.500;6.802;2022-09-12T02:51:20;14.00;99.90
10581;DHT22;5338;51.500;6.802;2022-09-12T02:53:47;13.70;99.90
10581;DHT22;5338;51.500;6.802;2022-09-12T02:56:19;13.80;99.90
10581;DHT22;5338;51.500;6.802;2022-09-12T02:58:47;14.00;99.90
10581;DHT22;5338;51.500;6.802;2022-09-12T03:01:22;13.90;99.90
10581;DHT22;5338;51.500;6.802;2022-09-12T03:04:07;14.30;99.90
10581;DHT22;5338;51.500;6.802;2022-09-12T03:06:43;14.00;99.90
10581;DHT22;5338;51.500;6.802;2022-09-12T03:09:15;14.10;99.90
10581;DHT22;5338;51.500;6.802;2022-09-12T03:12:00;13.80;99.90
10581;DHT22;5338;51.500;6.802;2022-09-12T03:14:45;13.90;99.90
10581;DHT22;5338;51.500;6.802;2022-09-12T03:17:23;14.00;99.90
10581;DHT22;5338;51.500;6.802;2022-09-12T03:19:59;13.90;99.90
10581;DHT22;5338;51.500;6.802;2022-09-12T03:22:30;13.90;99.90
10581;DHT22;5338;51.500;6.802;2022-09-12T03:25:05;13.90;99.90
10581;DHT22;5338;51.500;6.802;2022-09-12T03:27:35;13.80;99.90
10581;DHT22;5338;51.500;6.802;2022-09-12T03:30:05;13.80;99.90
10581;DHT22;5338;51.500;6.802;2022-09-12T03:32:46;13.90;99.90
10581;DHT22;5338;51.500;6.802;2022-09-12T03:35:16;13.80;99.90
10581;DHT22;5338;51.500;6.802;2022-09-12T03:37:43;13.80;99.90
10581;DHT22;5338;51.500;6.802;2022-09-12T03:40:10;13.80;99.90
10581;DHT22;5338;51.500;6.802;2022-09-12T03:42:38;13.90;99.90
10581;DHT22;5338;51.500;6.802;2022-09-12T03:45:05;13.80;99.90
10581;DHT22;5338;51.500;6.802;2022-09-12T03:47:32;13.60;99.90
10581;DHT22;5338;51.500;6.802;2022-09-12T03:49:59;13.70;99.90
10581;DHT22;5338;51.500;6.802;2022-09-12T03:52:27;13.80;99.90
10581;DHT22;5338;51.500;6.802;2022-09-12T03:54:54;13.70;99.90
10581;DHT22;5338;51.500;6.802;2022-09-12T03:59:48;13.70;99.90
10581;DHT22;5338;51.500;6.802;2022-09-12T04:02:15;13.70;99.90
10581;DHT22;5338;51.500;6.802;2022-09-12T04:04:43;13.80;99.90
10581;DHT22;5338;51.500;6.802;2022-09-12T04:09:41;13.70;99.90
10581;DHT22;5338;51.500;6.802;2022-09-12T04:12:08;13.60;99.90
10581;DHT22;5338;51.500;6.802;2022-09-12T04:21:56;13.60;99.90
10581;DHT22;5338;51.500;6.802;2022-09-12T04:24:23;13.50;99.90
10581;DHT22;5338;51.500;6.802;2022-09-12T04:26:51;13.60;99.90
10581;DHT22;5338;51.500;6.802;2022-09-12T04:29:18;13.60;99.90
10581;DHT22;5338;51.500;6.802;2022-09-12T04:31:45;13.40;99.90
10581;DHT22;5338;51.500;6.802;2022-09-12T04:36:39;13.60;99.90
10581;DHT22;5338;51.500;6.802;2022-09-12T04:41:35;13.30;99.90
10581;DHT22;5338;51.500;6.802;2022-09-12T04:44:05;13.60;99.90
10581;DHT22;5338;51.500;6.802;2022-09-12T04:46:34;14.20;99.90
10581;DHT22;5338;51.500;6.802;2022-09-12T04:49:02;13.70;99.90
10581;DHT22;5338;51.500;6.802;2022-09-12T04:51:31;13.20;99.90
10581;DHT22;5338;51.500;6.802;2022-09-12T04:54:00;14.00;99.90
10581;DHT22;5338;51.500;6.802;2022-09-12T04:56:28;13.40;99.90
10581;DHT22;5338;51.500;6.802;2022-09-12T04:58:56;13.60;99.90
10581;DHT22;5338;51.500;6.802;2022-09-12T05:01:26;13.60;99.90
10581;DHT22;5338;51.500;6.802;2022-09-12T05:03:55;13.60;99.90
10581;DHT22;5338;51.500;6.802;2022-09-12T05:06:23;13.50;99.90
10581;DHT22;5338;51.500;6.802;2022-09-12T05:11:19;12.90;99.90
10581;DHT22;5338;51.500;6.802;2022-09-12T05:13:46;13.70;99.90
10581;DHT22;5338;51.500;6.802;2022-09-12T05:16:15;13.70;99.90
10581;DHT22;5338;51.500;6.802;2022-09-12T05:18:43;13.70;99.90
10581;DHT22;5338;51.500;6.802;2022-09-12T05:21:13;13.80;99.90
10581;DHT22;5338;51.500;6.802;2022-09-12T05:23:39;14.00;99.90
10581;DHT22;5338;51.500;6.802;2022-09-12T05:26:07;13.90;99.90
10581;DHT22;5338;51.500;6.802;2022-09-12T05:28:36;13.90;99.90
10581;DHT22;5338;51.500;6.802;2022-09-12T05:31:04;14.00;99.90
10581;DHT22;5338;51.500;6.802;2022-09-12T05:33:33;14.10;99.90
10581;DHT22;5338;51.500;6.802;2022-09-12T05:36:03;14.10;99.90
10581;DHT22;5338;51.500;6.802;2022-09-12T05:38:30;14.10;99.90
10581;DHT22;5338;51.500;6.802;2022-09-12T05:41:03;14.20;99.90
10581;DHT22;5338;51.500;6.802;2022-09-12T05:43:30;14.20;99.90
10581;DHT22;5338;51.500;6.802;2022-09-12T05:46:00;14.40;99.90
10581;DHT22;5338;51.500;6.802;2022-09-12T05:50:58;14.30;99.90
10581;DHT22;5338;51.500;6.802;2022-09-12T05:53:27;14.60;99.90
10581;DHT22;5338;51.500;6.802;2022-09-12T05:56:02;14.50;99.90
10581;DHT22;5338;51.500;6.802;2022-09-12T06:01:01;14.80;99.90
10581;DHT22;5338;51.500;6.802;2022-09-12T06:03:28;14.60;99.90
10581;DHT22;5338;51.500;6.802;2022-09-12T06:05:54;14.50;99.90
10581;DHT22;5338;51.500;6.802;2022-09-12T06:08:21;14.60;99.90
10581;DHT22;5338;51.500;6.802;2022-09-12T06:10:49;15.00;99.90
10581;DHT22;5338;51.500;6.802;2022-09-12T06:20:38;15.10;99.90
10581;DHT22;5338;51.500;6.802;2022-09-12T06:23:04;15.20;99.90
10581;DHT22;5338;51.500;6.802;2022-09-12T06:25:31;14.90;99.90
10581;DHT22;5338;51.500;6.802;2022-09-12T06:27:59;15.40;99.90
10581;DHT22;5338;51.500;6.802;2022-09-12T06:35:21;15.50;99.90
10581;DHT22;5338;51.500;6.802;2022-09-12T06:45:11;15.70;99.90
10581;DHT22;5338;51.500;6.802;2022-09-12T06:50:08;15.80;99.90
10581;DHT22;5338;51.500;6.802;2022-09-12T06:52:35;16.10;99.90
10581;DHT22;5338;51.500;6.802;2022-09-12T06:55:02;16.00;99.90
10581;DHT22;5338;51.500;6.802;2022-09-12T07:00:01;16.40;99.90
10581;DHT22;5338;51.500;6.802;2022-09-12T07:02:30;16.10;99.90
10581;DHT22;5338;51.500;6.802;2022-09-12T07:09:51;16.10;99.90
10581;DHT22;5338;51.500;6.802;2022-09-12T07:19:41;16.50;99.90
10581;DHT22;5338;51.500;6.802;2022-09-12T07:24:35;16.50;99.90
10581;DHT22;5338;51.500;6.802;2022-09-12T07:34:25;16.70;99.90
10581;DHT22;5338;51.500;6.802;2022-09-12T07:36:54;16.60;99.90
10581;DHT22;5338;51.500;6.802;2022-09-12T07:46:42;16.60;99.90
10581;DHT22;5338;51.500;6.802;2022-09-12T07:49:11;16.80;99.90
10581;DHT22;5338;51.500;6.802;2022-09-12T07:54:08;16.80;99.90
10581;DHT22;5338;51.500;6.802;2022-09-12T07:59:02;16.90;99.90
10581;DHT22;5338;51.500;6.802;2022-09-12T08:03:57;16.80;99.90
10581;DHT22;5338;51.500;6.802;2022-09-12T08:06:26;16.90;99.90
10581;DHT22;5338;51.500;6.802;2022-09-12T08:08:56;16.90;99.90
10581;DHT22;5338;51.500;6.802;2022-09-12T08:11:26;17.00;99.90
10581;DHT22;5338;51.500;6.802;2022-09-12T08:16:23;17.20;99.90
10581;DHT22;5338;51.500;6.802;2022-09-12T08:21:19;17.30;99.90
10581;DHT22;5338;51.500;6.802;2022-09-12T08:23:51;17.50;99.90
10581;DHT22;5338;51.500;6.802;2022-09-12T08:28:47;17.70;99.90
10581;DHT22;5338;51.500;6.802;2022-09-12T08:31:16;17.70;99.90
10581;DHT22;5338;51.500;6.802;2022-09-12T08:36:12;17.80;99.90
10581;DHT22;5338;51.500;6.802;2022-09-12T08:38:40;17.90;99.90
10581;DHT22;5338;51.500;6.802;2022-09-12T08:41:13;17.70;99.90
10581;DHT22;5338;51.500;6.802;2022-09-12T08:44:05;17.90;99.90
10581;DHT22;5338;51.500;6.802;2022-09-12T08:46:37;18.00;99.90
10581;DHT22;5338;51.500;6.802;2022-09-12T08:49:09;18.00;99.90
10581;DHT22;5338;51.500;6.802;2022-09-12T08:51:38;18.00;99.90
10581;DHT22;5338;51.500;6.802;2022-09-12T08:54:13;17.60;99.90
10581;DHT22;5338;51.500;6.802;2022-09-12T08:56:42;18.30;99.90
10581;DHT22;5338;51.500;6.802;2022-09-12T08:59:11;18.10;99.90
10581;DHT22;5338;51.500;6.802;2022-09-12T09:01:42;18.50;99.90
10581;DHT22;5338;51.500;6.802;2022-09-12T09:04:27;18.40;99.90
10581;DHT22;5338;51.500;6.802;2022-09-12T09:07:23;18.40;99.90
10581;DHT22;5338;51.500;6.802;2022-09-12T09:10:06;18.50;99.90
10581;DHT22;5338;51.500;6.802;2022-09-12T09:12:41;18.60;99.90
10581;DHT22;5338;51.500;6.802;2022-09-12T09:15:32;18.60;99.90
10581;DHT22;5338;51.500;6.802;2022-09-12T09:18:03;18.50;99.90
10581;DHT22;5338;51.500;6.802;2022-09-12T09:20:35;19.00;99.90
10581;DHT22;5338;51.500;6.802;2022-09-12T09:23:07;19.00;99.90
10581;DHT22;5338;51.500;6.802;2022-09-12T09:25:43;18.60;99.90
10581;DHT22;5338;51.500;6.802;2022-09-12T09:28:17;18.80;99.90
10581;DHT22;5338;51.500;6.802;2022-09-12T09:30:48;19.20;99.90
10581;DHT22;5338;51.500;6.802;2022-09-12T09:33:20;19.30;99.90
10581;DHT22;5338;51.500;6.802;2022-09-12T09:35:54;19.30;99.90
10581;DHT22;5338;51.500;6.802;2022-09-12T09:38:25;19.40;99.90
10581;DHT22;5338;51.500;6.802;2022-09-12T09:41:11;19.40;99.90
10581;DHT22;5338;51.500;6.802;2022-09-12T09:46:10;19.70;99.90
10581;DHT22;5338;51.500;6.802;2022-09-12T09:48:41;19.70;99.90
10581;DHT22;5338;51.500;6.802;2022-09-12T09:51:10;19.90;99.90
10581;DHT22;5338;51.500;6.802;2022-09-12T09:53:42;20.10;99.90
10581;DHT22;5338;51.500;6.802;2022-09-12T09:56:14;20.30;99.90
10581;DHT22;5338;51.500;6.802;2022-09-12T10:01:14;20.70;99.90
10581;DHT22;5338;51.500;6.802;2022-09-12T10:03:47;21.00;99.90
10581;DHT22;5338;51.500;6.802;2022-09-12T10:06:38;21.40;99.90
10581;DHT22;5338;51.500;6.802;2022-09-12T10:09:18;21.90;99.90
10581;DHT22;5338;51.500;6.802;2022-09-12T10:11:45;22.50;99.90
10581;DHT22;5338;51.500;6.802;2022-09-12T10:14:37;22.40;99.90
10581;DHT22;5338;51.500;6.802;2022-09-12T10:17:27;22.70;99.90
10581;DHT22;5338;51.500;6.802;2022-09-12T10:19:54;23.20;99.90
10581;DHT22;5338;51.500;6.802;2022-09-12T10:22:23;23.30;99.90
10581;DHT22;5338;51.500;6.802;2022-09-12T10:24:52;23.40;99.90
10581;DHT22;5338;51.500;6.802;2022-09-12T10:27:21;23.30;99.90
10581;DHT22;5338;51.500;6.802;2022-09-12T10:29:51;23.60;99.90
10581;DHT22;5338;51.500;6.802;2022-09-12T10:32:25;23.80;99.90
10581;DHT22;5338;51.500;6.802;2022-09-12T10:34:57;24.90;99.90
10581;DHT22;5338;51.500;6.802;2022-09-12T10:37:29;24.00;99.90
10581;DHT22;5338;51.500;6.802;2022-09-12T10:39:58;24.30;99.90
10581;DHT22;5338;51.500;6.802;2022-09-12T10:42:44;24.30;99.90
10581;DHT22;5338;51.500;6.802;2022-09-12T10:45:24;24.90;99.90
10581;DHT22;5338;51.500;6.802;2022-09-12T10:47:52;24.70;99.90
10581;DHT22;5338;51.500;6.802;2022-09-12T10:50:24;24.90;99.90
10581;DHT22;5338;51.500;6.802;2022-09-12T10:55:23;24.60;97.60
10581;DHT22;5338;51.500;6.802;2022-09-12T10:58:10;24.90;99.90
10581;DHT22;5338;51.500;6.802;2022-09-12T11:00:46;25.20;99.90
10581;DHT22;5338;51.500;6.802;2022-09-12T11:03:22;25.50;98.10
10581;DHT22;5338;51.500;6.802;2022-09-12T11:05:55;25.50;94.90
10581;DHT22;5338;51.500;6.802;2022-09-12T11:08:54;25.70;94.70
10581;DHT22;5338;51.500;6.802;2022-09-12T11:11:50;25.90;95.60
10581;DHT22;5338;51.500;6.802;2022-09-12T11:14:31;25.90;92.20
10581;DHT22;5338;51.500;6.802;2022-09-12T11:17:04;25.80;91.60
10581;DHT22;5338;51.500;6.802;2022-09-12T11:20:00;25.80;90.10
10581;DHT22;5338;51.500;6.802;2022-09-12T11:22:53;26.40;89.80
10581;DHT22;5338;51.500;6.802;2022-09-12T11:25:30;25.90;89.10
10581;DHT22;5338;51.500;6.802;2022-09-12T11:28:19;26.00;83.70
10581;DHT22;5338;51.500;6.802;2022-09-12T11:30:56;25.80;80.50
10581;DHT22;5338;51.500;6.802;2022-09-12T11:33:40;25.60;79.50
10581;DHT22;5338;51.500;6.802;2022-09-12T11:36:16;25.70;91.70
10581;DHT22;5338;51.500;6.802;2022-09-12T11:39:00;25.00;86.20
10581;DHT22;5338;51.500;6.802;2022-09-12T11:41:30;25.40;81.80
10581;DHT22;5338;51.500;6.802;2022-09-12T11:44:03;25.30;80.70
10581;DHT22;5338;51.500;6.802;2022-09-12T11:46:35;25.10;92.30
10581;DHT22;5338;51.500;6.802;2022-09-12T11:49:10;25.30;93.60
10581;DHT22;5338;51.500;6.802;2022-09-12T11:51:44;25.90;80.60
10581;DHT22;5338;51.500;6.802;2022-09-12T11:54:20;26.00;83.00
10581;DHT22;5338;51.500;6.802;2022-09-12T11:56:52;25.70;78.00
10581;DHT22;5338;51.500;6.802;2022-09-12T11:59:30;25.70;77.20
10581;DHT22;5338;51.500;6.802;2022-09-12T12:04:33;25.70;77.20
10581;DHT22;5338;51.500;6.802;2022-09-12T12:07:03;25.90;74.30
10581;DHT22;5338;51.500;6.802;2022-09-12T12:09:32;25.80;80.20
10581;DHT22;5338;51.500;6.802;2022-09-12T12:12:03;26.30;74.90
10581;DHT22;5338;51.500;6.802;2022-09-12T12:14:37;26.10;85.90
10581;DHT22;5338;51.500;6.802;2022-09-12T12:17:13;25.60;84.10
10581;DHT22;5338;51.500;6.802;2022-09-12T12:19:41;23.10;67.80
10581;DHT22;5338;51.500;6.802;2022-09-12T12:22:14;25.90;83.40
10581;DHT22;5338;51.500;6.802;2022-09-12T12:25:04;25.80;71.00
10581;DHT22;5338;51.500;6.802;2022-09-12T12:27:47;26.10;70.80
10581;DHT22;5338;51.500;6.802;2022-09-12T12:33:51;26.00;77.30
10581;DHT22;5338;51.500;6.802;2022-09-12T12:36:31;25.80;66.50
10581;DHT22;5338;51.500;6.802;2022-09-12T12:48:33;26.40;75.70
10581;DHT22;5338;51.500;6.802;2022-09-12T12:51:38;26.00;66.30
10581;DHT22;5338;51.500;6.802;2022-09-12T12:57:18;25.60;73.20
10581;DHT22;5338;51.500;6.802;2022-09-12T12:59:48;25.80;65.20
10581;DHT22;5338;51.500;6.802;2022-09-12T13:02:28;26.10;78.10
10581;DHT22;5338;51.500;6.802;2022-09-12T13:04:59;25.80;64.50
10581;DHT22;5338;51.500;6.802;2022-09-12T13:07:31;25.80;77.00
10581;DHT22;5338;51.500;6.802;2022-09-12T13:09:59;26.30;77.60
10581;DHT22;5338;51.500;6.802;2022-09-12T13:12:28;25.90;64.00
10581;DHT22;5338;51.500;6.802;2022-09-12T13:14:58;25.90;62.70
10581;DHT22;5338;51.500;6.802;2022-09-12T13:17:29;25.60;61.00
10581;DHT22;5338;51.500;6.802;2022-09-12T13:20:06;25.20;61.50
10581;DHT22;5338;51.500;6.802;2022-09-12T13:22:41;25.20;73.00
10581;DHT22;5338;51.500;6.802;2022-09-12T13:25:22;25.30;61.50
10581;DHT22;5338;51.500;6.802;2022-09-12T13:28:00;25.10;58.80
10581;DHT22;5338;51.500;6.802;2022-09-12T13:30:29;25.10;59.90
10581;DHT22;5338;51.500;6.802;2022-09-12T13:32:57;25.40;75.00
10581;DHT22;5338;51.500;6.802;2022-09-12T13:35:38;24.90;67.90
10581;DHT22;5338;51.500;6.802;2022-09-12T13:38:14;25.10;60.60
10581;DHT22;5338;51.500;6.802;2022-09-12T13:40:56;25.00;59.90
10581;DHT22;5338;51.500;6.802;2022-09-12T13:43:36;25.00;59.90
10581;DHT22;5338;51.500;6.802;2022-09-12T13:46:05;25.40;74.20
10581;DHT22;5338;51.500;6.802;2022-09-12T13:51:02;24.70;59.10
10581;DHT22;5338;51.500;6.802;2022-09-12T13:53:34;24.80;60.30
10581;DHT22;5338;51.500;6.802;2022-09-12T13:56:02;25.00;75.20
10581;DHT22;5338;51.500;6.802;2022-09-12T13:58:30;25.10;61.40
10581;DHT22;5338;51.500;6.802;2022-09-12T14:01:05;24.80;74.90
10581;DHT22;5338;51.500;6.802;2022-09-12T14:03:37;25.00;60.40
10581;DHT22;5338;51.500;6.802;2022-09-12T14:06:26;24.90;61.60
10581;DHT22;5338;51.500;6.802;2022-09-12T14:08:54;25.10;74.80
10581;DHT22;5338;51.500;6.802;2022-09-12T14:11:25;25.20;58.40
10581;DHT22;5338;51.500;6.802;2022-09-12T14:16:22;25.50;70.90
10581;DHT22;5338;51.500;6.802;2022-09-12T14:18:52;24.80;64.20
10581;DHT22;5338;51.500;6.802;2022-09-12T14:21:31;25.40;58.90
10581;DHT22;5338;51.500;6.802;2022-09-12T14:24:00;25.50;58.10
10581;DHT22;5338;51.500;6.802;2022-09-12T14:26:32;25.60;59.00
10581;DHT22;5338;51.500;6.802;2022-09-12T14:29:00;25.70;57.00
10581;DHT22;5338;51.500;6.802;2022-09-12T14:31:31;25.50;56.60
10581;DHT22;5338;51.500;6.802;2022-09-12T14:34:09;25.50;64.80
10581;DHT22;5338;51.500;6.802;2022-09-12T14:36:42;25.30;57.10
10581;DHT22;5338;51.500;6.802;2022-09-12T14:39:23;25.10;57.50
10581;DHT22;5338;51.500;6.802;2022-09-12T14:41:59;25.10;57.50
10581;DHT22;5338;51.500;6.802;2022-09-12T14:44:27;25.30;71.90
10581;DHT22;5338;51.500;6.802;2022-09-12T14:46:57;25.10;58.70
10581;DHT22;5338;51.500;6.802;2022-09-12T14:49:31;25.20;59.30
10581;DHT22;5338;51.500;6.802;2022-09-12T14:52:02;25.20;58.30
10581;DHT22;5338;51.500;6.802;2022-09-12T14:54:37;25.30;58.70
10581;DHT22;5338;51.500;6.802;2022-09-12T14:57:32;25.10;61.20
10581;DHT22;5338;51.500;6.802;2022-09-12T15:00:20;25.40;71.80
10581;DHT22;5338;51.500;6.802;2022-09-12T15:02:48;24.80;70.10
10581;DHT22;5338;51.500;6.802;2022-09-12T15:05:18;25.60;60.60
10581;DHT22;5338;51.500;6.802;2022-09-12T15:07:53;25.10;56.10
10581;DHT22;5338;51.500;6.802;2022-09-12T15:10:22;24.70;69.80
10581;DHT22;5338;51.500;6.802;2022-09-12T15:13:12;25.00;58.50
10581;DHT22;5338;51.500;6.802;2022-09-12T15:15:41;24.80;57.50
10581;DHT22;5338;51.500;6.802;2022-09-12T15:18:08;25.30;67.90
10581;DHT22;5338;51.500;6.802;2022-09-12T15:20:36;24.80;58.40
10581;DHT22;5338;51.500;6.802;2022-09-12T15:23:05;24.70;58.20
10581;DHT22;5338;51.500;6.802;2022-09-12T15:28:00;24.90;71.40
10581;DHT22;5338;51.500;6.802;2022-09-12T15:30:31;24.80;58.70
10581;DHT22;5338;51.500;6.802;2022-09-12T15:37:52;24.70;65.00
10581;DHT22;5338;51.500;6.802;2022-09-12T15:40:20;24.60;57.50
10581;DHT22;5338;51.500;6.802;2022-09-12T15:42:47;24.60;69.50
10581;DHT22;5338;51.500;6.802;2022-09-12T15:45:17;24.60;57.10
10581;DHT22;5338;51.500;6.802;2022-09-12T15:55:11;24.40;58.10
10581;DHT22;5338;51.500;6.802;2022-09-12T15:57:42;24.10;70.90
10581;DHT22;5338;51.500;6.802;2022-09-12T16:00:09;24.10;61.80
10581;DHT22;5338;51.500;6.802;2022-09-12T16:05:04;24.00;58.60
10581;DHT22;5338;51.500;6.802;2022-09-12T16:14:54;23.80;59.90
10581;DHT22;5338;51.500;6.802;2022-09-12T16:32:05;23.70;61.80
10581;DHT22;5338;51.500;6.802;2022-09-12T16:44:21;23.90;70.60
10581;DHT22;5338;51.500;6.802;2022-09-12T16:46:48;23.20;75.90
10581;DHT22;5338;51.500;6.802;2022-09-12T16:49:16;23.50;62.80
10581;DHT22;5338;51.500;6.802;2022-09-12T16:54:12;23.70;66.10
10581;DHT22;5338;51.500;6.802;2022-09-12T16:56:39;23.60;77.00
10581;DHT22;5338;51.500;6.802;2022-09-12T17:04:01;23.40;64.10
10581;DHT22;5338;51.500;6.802;2022-09-12T17:06:31;23.60;78.30
10581;DHT22;5338;51.500;6.802;2022-09-12T17:09:00;23.20;64.50
10581;DHT22;5338;51.500;6.802;2022-09-12T17:11:30;23.40;79.10
10581;DHT22;5338;51.500;6.802;2022-09-12T17:13:58;23.10;65.80
10581;DHT22;5338;51.500;6.802;2022-09-12T17:16:26;23.10;65.90
10581;DHT22;5338;51.500;6.802;2022-09-12T17:18:54;23.00;66.10
10581;DHT22;5338;51.500;6.802;2022-09-12T17:23:49;22.90;67.60
10581;DHT22;5338;51.500;6.802;2022-09-12T17:31:13;22.70;69.30
10581;DHT22;5338;51.500;6.802;2022-09-12T17:36:09;22.50;71.40
10581;DHT22;5338;51.500;6.802;2022-09-12T17:38:38;22.40;87.40
10581;DHT22;5338;51.500;6.802;2022-09-12T17:41:08;22.50;76.40
10581;DHT22;5338;51.500;6.802;2022-09-12T17:43:36;22.30;76.50
10581;DHT22;5338;51.500;6.802;2022-09-12T17:51:06;22.00;79.10
10581;DHT22;5338;51.500;6.802;2022-09-12T17:56:00;22.10;81.70
10581;DHT22;5338;51.500;6.802;2022-09-12T17:58:29;21.80;83.30
10581;DHT22;5338;51.500;6.802;2022-09-12T18:00:59;21.80;86.30
10581;DHT22;5338;51.500;6.802;2022-09-12T18:06:07;21.90;92.00
10581;DHT22;5338;51.500;6.802;2022-09-12T18:11:03;21.30;96.80
10581;DHT22;5338;51.500;6.802;2022-09-12T18:13:32;21.30;99.90
10581;DHT22;5338;51.500;6.802;2022-09-12T18:16:02;21.40;99.50
10581;DHT22;5338;51.500;6.802;2022-09-12T18:18:29;21.20;99.90
10581;DHT22;5338;51.500;6.802;2022-09-12T18:23:23;20.80;99.90
10581;DHT22;5338;51.500;6.802;2022-09-12T18:25:56;21.10;99.90
10581;DHT22;5338;51.500;6.802;2022-09-12T18:28:23;21.20;99.90
10581;DHT22;5338;51.500;6.802;2022-09-12T18:30:51;21.00;99.90
10581;DHT22;5338;51.500;6.802;2022-09-12T18:38:12;20.50;99.90
10581;DHT22;5338;51.500;6.802;2022-09-12T18:40:39;20.80;99.90
10581;DHT22;5338;51.500;6.802;2022-09-12T18:43:06;21.00;99.90
10581;DHT22;5338;51.500;6.802;2022-09-12T18:48:01;20.70;99.90
10581;DHT22;5338;51.500;6.802;2022-09-12T18:52:56;20.70;99.90
10581;DHT22;5338;51.500;6.802;2022-09-12T19:02:45;20.50;99.90
10581;DHT22;5338;51.500;6.802;2022-09-12T19:05:13;20.50;99.90
10581;DHT22;5338;51.500;6.802;2022-09-12T19:10:07;20.30;99.90
10581;DHT22;5338;51.500;6.802;2022-09-12T19:15:01;20.30;99.90
10581;DHT22;5338;51.500;6.802;2022-09-12T19:17:28;20.20;99.90
10581;DHT22;5338;51.500;6.802;2022-09-12T19:22:23;20.40;99.90
10581;DHT22;5338;51.500;6.802;2022-09-12T19:39:35;20.40;99.90
10581;DHT22;5338;51.500;6.802;2022-09-12T19:46:56;20.00;99.90
10581;DHT22;5338;51.500;6.802;2022-09-12T19:56:46;19.90;99.90
10581;DHT22;5338;51.500;6.802;2022-09-12T20:13:57;19.60;99.90
10581;DHT22;5338;51.500;6.802;2022-09-12T20:16:25;19.50;99.90
10581;DHT22;5338;51.500;6.802;2022-09-12T20:18:55;19.50;99.90
10581;DHT22;5338;51.500;6.802;2022-09-12T20:21:24;19.50;99.90
10581;DHT22;5338;51.500;6.802;2022-09-12T20:23:58;19.50;99.90
10581;DHT22;5338;51.500;6.802;2022-09-12T20:31:21;19.40;99.90
10581;DHT22;5338;51.500;6.802;2022-09-12T20:36:18;19.40;99.90
10581;DHT22;5338;51.500;6.802;2022-09-12T20:38:46;19.20;99.90
10581;DHT22;5338;51.500;6.802;2022-09-12T20:41:14;19.40;99.90
10581;DHT22;5338;51.500;6.802;2022-09-12T20:46:09;19.40;99.90
10581;DHT22;5338;51.500;6.802;2022-09-12T20:48:38;19.50;99.90
10581;DHT22;5338;51.500;6.802;2022-09-12T20:51:05;19.50;99.90
10581;DHT22;5338;51.500;6.802;2022-09-12T21:03:21;19.60;99.90
10581;DHT22;5338;51.500;6.802;2022-09-12T21:05:51;19.50;99.90
10581;DHT22;5338;51.500;6.802;2022-09-12T21:13:13;19.50;99.90
10581;DHT22;5338;51.500;6.802;2022-09-12T21:15:40;19.50;99.90
10581;DHT22;5338;51.500;6.802;2022-09-12T21:23:03;19.50;99.90
10581;DHT22;5338;51.500;6.802;2022-09-12T21:25:30;19.20;99.90
10581;DHT22;5338;51.500;6.802;2022-09-12T21:27:57;19.50;99.90
10581;DHT22;5338;51.500;6.802;2022-09-12T21:30:24;19.30;99.90
10581;DHT22;5338;51.500;6.802;2022-09-12T21:40:15;19.80;99.90
10581;DHT22;5338;51.500;6.802;2022-09-12T21:50:05;19.50;99.90
10581;DHT22;5338;51.500;6.802;2022-09-12T21:52:32;19.30;99.90
10581;DHT22;5338;51.500;6.802;2022-09-12T21:54:59;19.20;99.90